Time;durP1;ratioP1;P1;durP2;ratioP2;P2;SDS_P1;SDS_P2;PMS_P1;PMS_P2;Temp;Humidity;BMP_temperature;BMP_pressure;BME280_temperature;BME280_humidity;BME280_pressure;Samples;Min_cycle;Max_cycle;Signal;HPM_P1;HPM_P2
2022/12/01 00:01:01;;;;;;;1.00;0.88;;;;;;;3.87;90.57;96829.09;5135984;27;20103;-61
2022/12/01 00:03:31;;;;;;;1.10;1.10;;;;;;;3.85;90.75;96836.03;5135850;27;20043;-60
2022/12/01 00:05:59;;;;;;;1.10;1.00;;;;;;;3.85;90.90;96833.44;5135940;27;20043;-61
2022/12/01 00:08:26;;;;;;;1.08;1.02;;;;;;;3.86;90.60;96832.56;5135716;27;20275;-61
2022/12/01 00:10:53;;;;;;;1.45;1.00;;;;;;;3.84;90.81;96831.69;5135728;27;20043;-61
2022/12/01 00:13:20;;;;;;;1.45;1.10;;;;;;;3.86;90.80;96827.38;5135714;27;20046;-61
2022/12/01 00:15:47;;;;;;;1.27;1.17;;;;;;;3.83;90.66;96829.97;5135432;27;20094;-61
2022/12/01 00:18:16;;;;;;;1.40;1.30;;;;;;;3.79;91.27;96819.66;5135215;27;20051;-61
2022/12/01 00:20:44;;;;;;;1.27;1.17;;;;;;;3.73;91.96;96822.28;5135518;27;20117;-61
2022/12/01 00:23:11;;;;;;;1.33;1.10;;;;;;;3.74;91.73;96821.44;5135372;27;20138;-61
2022/12/01 00:25:38;;;;;;;1.27;1.15;;;;;;;3.75;91.96;96817.09;5135411;27;20047;-61
2022/12/01 00:28:06;;;;;;;1.23;1.13;;;;;;;3.73;92.18;96813.66;5135335;27;20092;-61
2022/12/01 00:30:33;;;;;;;1.25;1.15;;;;;;;3.67;92.38;96809.38;5135451;27;20050;-61
2022/12/01 00:33:00;;;;;;;1.25;1.13;;;;;;;3.74;92.42;96815.38;5135266;27;20092;-61
2022/12/01 00:35:28;;;;;;;1.48;1.02;;;;;;;3.71;92.24;96810.22;5135239;27;20085;-61
2022/12/01 00:37:55;;;;;;;1.45;1.35;;;;;;;3.69;92.64;96810.22;5135086;27;20404;-61
2022/12/01 00:40:23;;;;;;;1.38;1.27;;;;;;;3.67;92.39;96807.66;5135056;27;20054;-62
2022/12/01 00:42:50;;;;;;;1.30;1.20;;;;;;;3.69;92.21;96799.88;5134886;27;20047;-61
2022/12/01 00:45:17;;;;;;;1.40;1.00;;;;;;;3.65;92.03;96791.25;5134984;27;20051;-60
2022/12/01 00:47:44;;;;;;;2.70;1.48;;;;;;;3.63;92.26;96794.72;5134859;27;20051;-62
2022/12/01 00:50:11;;;;;;;1.15;1.05;;;;;;;3.60;92.54;96797.34;5134904;27;20128;-61
2022/12/01 00:52:40;;;;;;;1.20;1.10;;;;;;;3.59;92.04;96801.69;5135096;27;20147;-61
2022/12/01 00:55:08;;;;;;;1.40;1.30;;;;;;;3.53;92.76;96789.59;5134891;27;20403;-61
2022/12/01 00:57:35;;;;;;;1.75;1.23;;;;;;;3.51;92.29;96791.38;5134678;27;20058;-62
2022/12/01 01:00:02;;;;;;;1.80;1.30;;;;;;;3.52;92.73;96794.78;5134791;27;20485;-62
2022/12/01 01:02:29;;;;;;;1.35;1.25;;;;;;;3.52;92.62;96787.91;5134765;27;20046;-61
2022/12/01 01:04:56;;;;;;;1.42;1.33;;;;;;;3.52;92.88;96794.78;5134695;27;20043;-61
2022/12/01 01:07:24;;;;;;;1.27;1.15;;;;;;;3.51;92.67;96786.19;5134589;27;20465;-61
2022/12/01 01:09:52;;;;;;;1.60;1.30;;;;;;;3.48;92.75;96786.22;5134590;27;20047;-61
2022/12/01 01:12:20;;;;;;;2.85;1.20;;;;;;;3.47;92.58;96784.50;5134502;27;20497;-61
2022/12/01 01:14:47;;;;;;;1.05;1.05;;;;;;;3.47;92.72;96781.91;5134489;27;20086;-62
2022/12/01 01:17:14;;;;;;;1.85;1.27;;;;;;;3.49;92.67;96782.75;5134337;27;20512;-61
2022/12/01 01:19:41;;;;;;;1.40;1.30;;;;;;;3.47;92.98;96778.44;5134203;27;20135;-61
2022/12/01 01:22:08;;;;;;;1.23;1.10;;;;;;;3.45;93.15;96781.03;5134394;27;20043;-61
2022/12/01 01:24:35;;;;;;;0.90;0.90;;;;;;;3.46;92.61;96779.34;5134349;27;20106;-61
2022/12/01 01:27:04;;;;;;;1.52;1.20;;;;;;;3.40;92.67;96780.19;5134245;27;20043;-61
2022/12/01 01:29:32;;;;;;;1.20;1.10;;;;;;;3.40;92.64;96778.47;5134258;27;20051;-61
2022/12/01 01:32:00;;;;;;;2.10;1.23;;;;;;;3.45;92.57;96778.47;5134188;27;20134;-62
2022/12/01 01:34:27;;;;;;;1.33;1.20;;;;;;;3.43;92.80;96771.59;5134126;27;20083;-61
2022/12/01 01:36:54;;;;;;;1.10;1.00;;;;;;;3.41;92.08;96769.84;5134093;27;20043;-62
2022/12/01 01:39:21;;;;;;;1.15;1.05;;;;;;;3.44;92.34;96769.00;5134300;27;20113;-61
2022/12/01 01:41:48;;;;;;;1.85;0.80;;;;;;;3.43;91.63;96759.50;5134141;27;20400;-62
2022/12/01 01:44:55;;;;;;;0.85;0.85;;;;;;;3.41;92.08;96767.25;5134145;27;20122;-61
2022/12/01 01:47:27;;;;;;;1.00;0.77;;;;;;;3.40;91.88;96767.25;5129103;28;20051;-60
2022/12/01 01:49:57;;;;;;;1.20;1.10;;;;;;;3.38;92.52;96763.84;5134044;27;20051;-61
2022/12/01 01:52:25;;;;;;;0.90;0.90;;;;;;;3.42;91.95;96762.97;5134066;27;20488;-61
2022/12/01 01:54:55;;;;;;;1.05;0.98;;;;;;;3.42;91.53;96760.38;5137429;27;20071;-61
2022/12/01 01:57:26;;;;;;;0.70;0.70;;;;;;;3.44;91.67;96762.94;5138275;27;20130;-61
2022/12/01 01:59:58;;;;;;;0.90;0.90;;;;;;;3.45;91.99;96769.81;5138084;27;20100;-61
2022/12/01 02:02:26;;;;;;;0.82;0.82;;;;;;;3.38;91.29;96766.44;5138205;27;20567;-61
2022/12/01 02:05:00;;;;;;;0.73;0.73;;;;;;;3.33;90.52;96763.00;5138160;27;20047;-61
2022/12/01 02:07:27;;;;;;;1.30;1.10;;;;;;;3.35;91.51;96763.88;5138161;27;20057;-61
2022/12/01 02:09:56;;;;;;;0.98;0.88;;;;;;;3.33;90.75;96763.88;5138109;27;20075;-61
2022/12/01 02:12:38;;;;;;;0.93;0.90;;;;;;;3.35;91.34;96753.50;5138294;27;20063;-62
2022/12/01 02:15:22;;;;;;;0.82;0.82;;;;;;;3.35;91.62;96750.94;5137920;27;20047;-61
2022/12/01 02:18:05;;;;;;;0.82;0.82;;;;;;;3.27;91.78;96744.09;5137691;27;20134;-61
2022/12/01 02:21:00;;;;;;;0.80;0.80;;;;;;;3.25;91.01;96740.63;5137768;27;20079;-61
2022/12/01 02:23:53;;;;;;;0.82;0.80;;;;;;;3.24;91.79;96738.91;5124811;27;20470;-61
2022/12/01 02:26:44;;;;;;;0.70;0.70;;;;;;;3.23;91.45;96741.53;5137746;27;20086;-62
2022/12/01 02:29:34;;;;;;;1.02;1.00;;;;;;;3.21;91.12;96735.47;5137724;27;20083;-61
2022/12/01 02:32:12;;;;;;;1.05;0.90;;;;;;;3.22;90.78;96732.88;5137635;27;20082;-61
2022/12/01 02:34:44;;;;;;;0.75;0.75;;;;;;;3.18;90.52;96728.59;5137491;27;20070;-61
2022/12/01 02:37:17;;;;;;;0.85;0.70;;;;;;;3.21;90.99;96722.56;5137452;27;20050;-62
2022/12/01 02:39:55;;;;;;;0.80;0.80;;;;;;;3.26;91.58;96718.22;5137456;27;20049;-62
2022/12/01 02:42:52;;;;;;;1.10;1.00;;;;;;;3.23;91.30;96719.13;5137383;27;20047;-61
2022/12/01 02:45:29;;;;;;;0.68;0.68;;;;;;;3.24;91.65;96722.53;5137371;27;20506;-61
2022/12/01 02:48:01;;;;;;;0.77;0.77;;;;;;;3.21;90.94;96722.56;5137249;27;20039;-62
2022/12/01 02:50:32;;;;;;;1.10;0.80;;;;;;;3.20;90.69;96726.03;5137227;27;20432;-61
2022/12/01 02:53:01;;;;;;;2.45;0.98;;;;;;;3.18;90.98;96728.59;5137099;27;20047;-61
2022/12/01 02:55:28;;;;;;;0.75;0.75;;;;;;;3.19;90.83;96722.56;5137104;27;20092;-61
2022/12/01 02:57:55;;;;;;;0.70;0.70;;;;;;;3.18;90.84;96725.16;5137004;27;20047;-61
2022/12/01 03:00:22;;;;;;;0.70;0.70;;;;;;;3.17;90.61;96729.50;5137081;27;20093;-61
2022/12/01 03:03:13;;;;;;;0.80;0.80;;;;;;;3.23;90.42;96729.47;5137062;27;20047;-62
2022/12/01 03:05:49;;;;;;;0.80;0.75;;;;;;;3.21;89.89;96728.59;5135641;27;20123;-62
2022/12/01 03:08:25;;;;;;;0.57;0.57;;;;;;;3.21;89.64;96733.75;5136918;27;20043;-61
2022/12/01 03:10:54;;;;;;;0.85;0.65;;;;;;;3.14;90.13;96729.50;5136783;27;20549;-61
2022/12/01 03:13:32;;;;;;;0.70;0.65;;;;;;;3.14;89.75;96725.19;5136896;27;20075;-60
2022/12/01 03:16:08;;;;;;;0.93;0.88;;;;;;;3.17;89.37;96724.31;5136763;27;20527;-61
2022/12/01 03:18:39;;;;;;;0.60;0.60;;;;;;;3.14;89.39;96722.63;5136352;27;20058;-62
2022/12/01 03:21:10;;;;;;;1.98;0.93;;;;;;;3.08;89.08;96719.19;5136649;27;20043;-60
2022/12/01 03:23:41;;;;;;;0.68;0.50;;;;;;;3.07;90.01;96720.91;5136633;27;20074;-61
2022/12/01 03:26:15;;;;;;;0.73;0.73;;;;;;;3.06;89.34;96720.91;5136610;27;20074;-61
2022/12/01 03:28:46;;;;;;;0.77;0.75;;;;;;;3.05;89.93;96716.63;5136530;27;20066;-61
2022/12/01 03:31:18;;;;;;;1.48;0.80;;;;;;;3.05;90.25;96722.66;5136480;27;20055;-62
2022/12/01 03:33:52;;;;;;;0.63;0.60;;;;;;;3.04;90.03;96723.50;5136431;27;20040;-62
2022/12/01 03:36:25;;;;;;;0.70;0.70;;;;;;;2.98;89.81;96724.41;5136477;27;20524;-62
2022/12/01 03:38:58;;;;;;;0.68;0.65;;;;;;;3.03;89.93;96726.97;5136299;27;20039;-61
2022/12/01 03:41:34;;;;;;;0.93;0.63;;;;;;;3.07;89.89;96722.66;5136256;27;20039;-61
2022/12/01 03:44:09;;;;;;;0.70;0.70;;;;;;;3.05;89.56;96729.53;5136170;27;20050;-61
2022/12/01 03:46:46;;;;;;;0.57;0.57;;;;;;;3.03;89.35;96719.22;5136213;27;20468;-61
2022/12/01 03:49:17;;;;;;;0.70;0.70;;;;;;;3.02;89.55;96726.13;5136381;27;20102;-61
2022/12/01 03:51:54;;;;;;;0.70;0.70;;;;;;;3.01;89.86;96720.97;5136102;27;20043;-62
2022/12/01 03:54:29;;;;;;;0.60;0.60;;;;;;;2.95;89.99;96727.00;5136212;27;20039;-61
2022/12/01 03:57:00;;;;;;;0.90;0.55;;;;;;;2.95;89.45;96728.75;5136006;27;20130;-62
2022/12/01 03:59:29;;;;;;;0.40;0.40;;;;;;;2.88;90.47;96713.25;5136015;27;20051;-61
2022/12/01 04:01:58;;;;;;;0.80;0.80;;;;;;;2.82;90.88;96708.09;5135701;27;20043;-61
2022/12/01 04:04:26;;;;;;;0.75;0.75;;;;;;;2.81;90.67;96724.50;5135924;27;20077;-61
2022/12/01 04:06:54;;;;;;;0.60;0.60;;;;;;;2.80;90.60;96716.75;5135801;27;20051;-61
2022/12/01 04:09:21;;;;;;;0.80;0.80;;;;;;;2.79;91.09;96718.44;5135853;27;20043;-61
2022/12/01 04:14:32;;;;;;;1.02;0.93;;;;;;;2.73;91.16;96715.88;5135726;27;20670;-61
2022/12/01 04:16:59;;;;;;;0.93;0.75;;;;;;;2.76;91.38;96724.50;5135159;27;20049;-61
2022/12/01 04:19:28;;;;;;;1.48;0.60;;;;;;;2.80;90.84;96724.50;5135249;27;20134;-61
2022/12/01 04:21:55;;;;;;;0.70;0.70;;;;;;;2.77;90.37;96722.78;5135655;27;20054;-61
2022/12/01 04:24:23;;;;;;;0.55;0.55;;;;;;;2.76;90.23;96724.50;5135510;27;20465;-61
2022/12/01 04:26:50;;;;;;;0.60;0.60;;;;;;;2.76;90.20;96724.50;5135412;27;20405;-61
2022/12/01 04:29:17;;;;;;;0.75;0.70;;;;;;;2.81;90.17;96729.66;5135367;27;20404;-61
2022/12/01 04:31:44;;;;;;;0.77;0.60;;;;;;;2.81;89.57;96734.81;5135288;27;20043;-62
2022/12/01 04:34:11;;;;;;;0.60;0.60;;;;;;;2.85;89.08;96743.41;5135365;27;20057;-61
2022/12/01 04:36:39;;;;;;;0.75;0.75;;;;;;;2.85;89.42;96744.28;5135265;27;20082;-61
2022/12/01 04:39:06;;;;;;;1.30;0.90;;;;;;;2.80;89.92;96742.56;5134997;27;20512;-61
2022/12/01 04:41:34;;;;;;;0.88;0.88;;;;;;;2.78;90.40;96752.91;5135064;27;20488;-61
2022/12/01 04:44:01;;;;;;;0.82;0.80;;;;;;;2.81;90.05;96759.78;5135089;27;20405;-61
2022/12/01 04:46:28;;;;;;;0.68;0.68;;;;;;;2.83;89.49;96752.91;5134971;27;20047;-61
2022/12/01 04:48:55;;;;;;;0.65;0.65;;;;;;;2.80;89.61;96760.66;5134949;27;20063;-61
2022/12/01 04:51:22;;;;;;;0.60;0.60;;;;;;;2.79;90.39;96752.03;5134845;27;20055;-62
2022/12/01 04:53:51;;;;;;;0.60;0.60;;;;;;;2.75;90.02;96752.94;5134907;27;20088;-62
2022/12/01 04:56:18;;;;;;;1.33;0.80;;;;;;;2.72;90.51;96758.09;5134878;27;20096;-61
2022/12/01 04:58:45;;;;;;;1.15;0.80;;;;;;;2.76;90.88;96760.69;5134749;27;20047;-61
2022/12/01 05:01:14;;;;;;;0.60;0.60;;;;;;;2.81;91.20;96758.09;5134721;27;20543;-61
2022/12/01 05:03:43;;;;;;;0.60;0.60;;;;;;;2.81;90.30;96755.50;5134679;27;20125;-61
2022/12/01 05:06:13;;;;;;;0.70;0.70;;;;;;;2.81;91.13;96760.66;5134692;27;20043;-61
2022/12/01 05:08:41;;;;;;;0.50;0.50;;;;;;;2.82;90.37;96766.66;5134610;27;20119;-61
2022/12/01 05:11:11;;;;;;;0.60;0.60;;;;;;;2.78;90.44;96763.25;5134461;27;20053;-61
2022/12/01 05:13:39;;;;;;;0.60;0.60;;;;;;;2.77;90.58;96764.13;5134560;27;20094;-61
2022/12/01 05:16:09;;;;;;;1.90;0.73;;;;;;;2.78;91.35;96776.19;5134595;27;20123;-61
2022/12/01 05:18:37;;;;;;;0.73;0.73;;;;;;;2.75;90.92;96779.63;5134133;27;20499;-61
2022/12/01 05:21:05;;;;;;;0.63;0.60;;;;;;;2.76;90.86;96771.00;5134238;27;20371;-62
2022/12/01 05:23:34;;;;;;;0.55;0.52;;;;;;;2.76;91.12;96775.31;5134360;27;20043;-61
2022/12/01 05:26:02;;;;;;;0.70;0.70;;;;;;;2.74;91.05;96774.47;5134458;27;20481;-61
2022/12/01 05:28:30;;;;;;;0.68;0.68;;;;;;;2.74;91.11;96780.47;5133611;27;20459;-61
2022/12/01 05:30:58;;;;;;;0.60;0.60;;;;;;;2.70;90.99;96770.16;5134286;27;20066;-61
2022/12/01 05:33:26;;;;;;;0.77;0.60;;;;;;;2.71;90.66;96766.72;5134334;27;20043;-61
2022/12/01 05:35:54;;;;;;;0.50;0.50;;;;;;;2.69;91.13;96771.03;5134170;27;20125;-61
2022/12/01 05:38:21;;;;;;;0.60;0.60;;;;;;;2.67;90.73;96768.44;5134161;27;20048;-61
2022/12/01 05:40:52;;;;;;;0.50;0.50;;;;;;;2.70;91.41;96771.03;5134139;27;20058;-61
2022/12/01 05:43:20;;;;;;;0.50;0.50;;;;;;;2.69;91.44;96774.47;5134101;27;20422;-61
2022/12/01 05:45:50;;;;;;;0.57;0.57;;;;;;;2.69;90.95;96771.91;5134111;27;20047;-61
2022/12/01 05:48:17;;;;;;;0.68;0.68;;;;;;;2.66;91.20;96769.31;5134208;27;20039;-62
2022/12/01 05:50:44;;;;;;;0.63;0.50;;;;;;;2.68;91.12;96772.75;5133995;27;20129;-61
2022/12/01 05:53:12;;;;;;;0.70;0.70;;;;;;;2.69;91.42;96769.31;5134027;27;20043;-61
2022/12/01 05:55:40;;;;;;;0.57;0.57;;;;;;;2.66;91.48;96769.31;5133933;27;20446;-61
2022/12/01 05:58:07;;;;;;;2.85;0.40;;;;;;;2.72;91.39;96765.84;5134079;27;20043;-61
2022/12/01 06:00:35;;;;;;;0.52;0.52;;;;;;;2.72;91.72;96766.72;5134018;27;20044;-62
2022/12/01 06:03:04;;;;;;;0.50;0.50;;;;;;;2.69;91.54;96763.28;5134011;27;20160;-62
2022/12/01 06:05:31;;;;;;;0.68;0.60;;;;;;;2.65;91.37;96765.88;5133976;27;20069;-61
2022/12/01 06:07:59;;;;;;;0.45;0.45;;;;;;;2.68;92.04;96764.16;5133870;27;20043;-62
2022/12/01 06:10:25;;;;;;;2.67;0.68;;;;;;;2.72;92.25;96771.03;5133873;27;20065;-61
2022/12/01 06:12:52;;;;;;;0.52;0.47;;;;;;;2.72;91.49;96782.22;5133837;27;20122;-61
2022/12/01 06:15:20;;;;;;;1.00;0.57;;;;;;;2.73;91.88;96783.94;5133887;27;20085;-61
2022/12/01 06:17:47;;;;;;;0.60;0.60;;;;;;;2.70;92.10;96777.91;5133522;27;20058;-61
2022/12/01 06:20:16;;;;;;;0.60;0.60;;;;;;;2.76;92.15;96780.47;5133708;27;20074;-61
2022/12/01 06:22:43;;;;;;;0.50;0.50;;;;;;;2.73;91.25;96776.19;5133802;27;20079;-61
2022/12/01 06:25:10;;;;;;;0.50;0.50;;;;;;;2.74;91.29;96777.06;5133766;27;20046;-61
2022/12/01 06:27:37;;;;;;;0.50;0.50;;;;;;;2.72;91.95;96774.47;5133773;27;20039;-61
2022/12/01 06:30:06;;;;;;;0.95;0.65;;;;;;;2.73;91.47;96772.72;5133651;27;20100;-61
2022/12/01 06:32:33;;;;;;;0.50;0.50;;;;;;;2.74;91.66;96774.47;5133688;27;20047;-61
2022/12/01 06:35:00;;;;;;;0.47;0.45;;;;;;;2.70;91.94;96781.34;5133731;27;20047;-61
2022/12/01 06:37:29;;;;;;;0.45;0.45;;;;;;;2.68;91.69;96777.91;5133628;27;20089;-61
2022/12/01 06:39:56;;;;;;;0.50;0.50;;;;;;;2.70;91.79;96785.66;5135083;27;20047;-61
2022/12/01 06:42:23;;;;;;;0.73;0.55;;;;;;;2.68;91.86;96783.06;5137463;27;20043;-61
2022/12/01 06:44:50;;;;;;;0.50;0.50;;;;;;;2.66;91.81;96782.25;5137496;27;20071;-61
2022/12/01 06:47:17;;;;;;;0.50;0.50;;;;;;;2.72;91.71;96779.66;5137233;27;20049;-61
2022/12/01 06:49:44;;;;;;;0.50;0.50;;;;;;;2.69;91.53;96771.03;5137322;27;20071;-61
2022/12/01 06:52:12;;;;;;;0.47;0.47;;;;;;;2.69;91.75;96769.31;5137289;27;20043;-61
2022/12/01 06:54:40;;;;;;;2.22;0.60;;;;;;;2.69;91.88;96774.47;5137273;27;20454;-61
2022/12/01 06:57:08;;;;;;;0.40;0.40;;;;;;;2.68;92.31;96775.31;5137209;27;20090;-60
2022/12/01 06:59:35;;;;;;;0.57;0.57;;;;;;;2.72;91.87;96771.91;5136964;27;20047;-61
2022/12/01 07:02:02;;;;;;;0.43;0.43;;;;;;;2.69;91.18;96768.44;5137076;27;20090;-61
2022/12/01 07:04:30;;;;;;;0.45;0.45;;;;;;;2.64;91.62;96764.16;5137094;27;20047;-61
2022/12/01 07:06:57;;;;;;;0.68;0.68;;;;;;;2.65;91.30;96770.19;5137186;27;20403;-61
2022/12/01 07:09:24;;;;;;;0.60;0.60;;;;;;;2.69;92.08;96771.03;5136944;27;20557;-61
2022/12/01 07:11:53;;;;;;;0.50;0.50;;;;;;;2.68;92.28;96762.41;5136987;27;20084;-61
2022/12/01 07:14:23;;;;;;;0.50;0.50;;;;;;;2.68;91.99;96777.91;5136888;27;20546;-61
2022/12/01 07:16:50;;;;;;;0.40;0.40;;;;;;;2.70;90.90;96768.44;5136848;27;20420;-61
2022/12/01 07:19:17;;;;;;;0.63;0.50;;;;;;;2.75;92.01;96776.19;5136582;27;20109;-61
2022/12/01 07:21:44;;;;;;;0.45;0.45;;;;;;;2.81;91.74;96773.59;5136726;27;20047;-61
2022/12/01 07:24:12;;;;;;;0.40;0.40;;;;;;;2.80;91.30;96771.00;5136672;27;20043;-60
2022/12/01 07:26:40;;;;;;;0.50;0.50;;;;;;;2.79;91.72;96777.88;5136770;27;20134;-61
2022/12/01 07:29:09;;;;;;;0.47;0.47;;;;;;;2.78;90.61;96774.47;5136582;27;20043;-60
2022/12/01 07:31:36;;;;;;;0.47;0.47;;;;;;;2.83;90.87;96771.84;5136466;27;20107;-61
2022/12/01 07:34:05;;;;;;;0.50;0.50;;;;;;;2.83;91.90;96773.59;5136434;27;20053;-61
2022/12/01 07:36:33;;;;;;;0.40;0.40;;;;;;;2.81;91.34;96767.53;5136409;27;20050;-61
2022/12/01 07:39:00;;;;;;;0.60;0.52;;;;;;;2.83;92.55;96771.84;5136295;27;20137;-61
2022/12/01 07:41:27;;;;;;;0.50;0.50;;;;;;;2.85;92.14;96777.88;5136314;27;20488;-61
2022/12/01 07:43:56;;;;;;;1.15;0.80;;;;;;;2.92;92.48;96781.28;5136154;27;20047;-61
2022/12/01 07:46:26;;;;;;;0.40;0.40;;;;;;;2.91;92.30;96774.41;5136103;27;20055;-60
2022/12/01 07:48:54;;;;;;;0.68;0.68;;;;;;;2.92;92.53;96778.69;5136108;27;20100;-60
2022/12/01 07:51:23;;;;;;;0.50;0.50;;;;;;;2.98;91.61;96778.69;5135350;27;20489;-61
2022/12/01 07:53:52;;;;;;;0.63;0.63;;;;;;;2.99;91.40;96772.66;5136027;27;20054;-61
2022/12/01 07:56:20;;;;;;;2.97;0.63;;;;;;;3.00;91.98;96776.97;5135987;27;20051;-61
2022/12/01 07:58:47;;;;;;;0.60;0.60;;;;;;;3.02;90.69;96776.94;5135897;27;20103;-60
2022/12/01 08:01:17;;;;;;;2.33;0.50;;;;;;;3.02;91.52;96767.47;5136014;27;20100;-60
2022/12/01 08:03:47;;;;;;;0.77;0.70;;;;;;;3.07;91.85;96776.94;5135842;27;20046;-61
2022/12/01 08:06:14;;;;;;;0.70;0.70;;;;;;;3.10;91.49;96775.19;5135869;27;20082;-61
2022/12/01 08:08:42;;;;;;;0.60;0.60;;;;;;;3.13;90.95;96788.09;5135760;27;20039;-60
2022/12/01 08:11:12;;;;;;;0.50;0.50;;;;;;;3.11;90.79;96776.91;5135619;27;20054;-61
2022/12/01 08:13:40;;;;;;;0.50;0.50;;;;;;;3.15;91.61;96776.03;5135609;27;20058;-61
2022/12/01 08:16:09;;;;;;;0.70;0.70;;;;;;;3.13;91.79;96777.75;5135639;27;20070;-60
2022/12/01 08:18:36;;;;;;;0.60;0.60;;;;;;;3.15;92.23;96773.44;5135379;27;20046;-61
2022/12/01 08:21:07;;;;;;;0.80;0.80;;;;;;;3.18;91.91;96779.44;5135492;27;20096;-61
2022/12/01 08:23:34;;;;;;;0.60;0.60;;;;;;;3.16;91.71;96771.69;5135439;27;20043;-61
2022/12/01 08:26:02;;;;;;;0.50;0.50;;;;;;;3.24;91.66;96777.72;5135379;27;20100;-60
2022/12/01 08:28:29;;;;;;;0.50;0.50;;;;;;;3.28;91.01;96784.59;5135324;27;20455;-61
2022/12/01 08:30:57;;;;;;;0.65;0.65;;;;;;;3.28;91.53;96765.59;5135216;27;20064;-60
2022/12/01 08:33:24;;;;;;;0.65;0.65;;;;;;;3.28;92.61;96775.94;5135183;27;20039;-61
2022/12/01 08:35:51;;;;;;;0.60;0.60;;;;;;;3.32;91.15;96767.34;5135276;27;20040;-59
2022/12/01 08:38:20;;;;;;;0.68;0.68;;;;;;;3.30;90.68;96763.88;5135194;27;20092;-60
2022/12/01 08:40:47;;;;;;;0.60;0.60;;;;;;;3.31;91.02;96755.25;5135085;27;20442;-60
2022/12/01 08:43:15;;;;;;;0.68;0.68;;;;;;;3.30;92.34;96758.72;5135038;27;20107;-61
2022/12/01 08:45:42;;;;;;;0.80;0.80;;;;;;;3.34;91.36;96752.66;5135054;27;20100;-60
2022/12/01 08:48:09;;;;;;;4.85;0.80;;;;;;;3.37;92.31;96759.56;5134902;27;20409;-60
2022/12/01 08:50:37;;;;;;;0.60;0.60;;;;;;;3.39;91.92;96763.84;5134892;27;20556;-60
2022/12/01 08:53:05;;;;;;;0.70;0.70;;;;;;;3.41;91.40;96762.09;5134823;27;20064;-60
2022/12/01 08:55:36;;;;;;;0.75;0.75;;;;;;;3.37;91.31;96751.78;5134796;27;20065;-60
2022/12/01 08:58:04;;;;;;;0.50;0.50;;;;;;;3.39;90.41;96750.91;5134753;27;20047;-61
2022/12/01 09:00:33;;;;;;;1.33;0.52;;;;;;;3.36;90.61;96757.81;5134629;27;20050;-61
2022/12/01 09:03:01;;;;;;;0.82;0.68;;;;;;;3.33;91.48;96745.78;5134635;27;20484;-60
2022/12/01 09:05:31;;;;;;;0.70;0.70;;;;;;;3.39;91.96;96744.88;5134677;27;20441;-61
2022/12/01 09:10:40;;;;;;;;;;;;;;;3.36;91.73;96737.13;5134936;27;20100;-61
2022/12/01 09:13:07;;;;;;;0.63;0.63;;;;;;;3.28;91.75;96732.00;5134598;27;20421;-60
2022/12/01 09:15:34;;;;;;;0.80;0.80;;;;;;;3.22;92.54;96729.47;5134563;27;20051;-60
2022/12/01 09:18:01;;;;;;;0.63;0.63;;;;;;;3.18;91.15;96727.75;5134280;27;20072;-61
2022/12/01 09:20:29;;;;;;;0.57;0.57;;;;;;;3.12;92.28;96726.06;5134338;27;20051;-60
2022/12/01 09:22:56;;;;;;;0.65;0.65;;;;;;;3.16;92.45;96722.56;5134387;27;20130;-61
2022/12/01 09:25:24;;;;;;;0.93;0.50;;;;;;;3.19;92.69;96721.72;5134752;27;20043;-61
2022/12/01 09:27:53;;;;;;;0.82;0.82;;;;;;;3.22;92.37;96727.72;5134381;27;20085;-61
2022/12/01 09:30:21;;;;;;;1.70;0.73;;;;;;;3.25;92.40;96721.69;5134423;27;20403;-61
2022/12/01 09:32:49;;;;;;;0.52;0.52;;;;;;;3.29;92.74;96723.38;5134308;27;20050;-60
2022/12/01 09:35:17;;;;;;;0.60;0.60;;;;;;;3.33;92.00;96716.44;5134192;27;20120;-61
2022/12/01 09:37:44;;;;;;;0.75;0.60;;;;;;;3.31;91.80;96724.22;5134106;27;20054;-61
2022/12/01 09:40:15;;;;;;;0.50;0.50;;;;;;;3.30;91.63;96717.34;5134290;27;20051;-61
2022/12/01 09:42:47;;;;;;;0.85;0.85;;;;;;;3.27;92.07;96713.06;5134202;27;20047;-61
2022/12/01 09:45:26;;;;;;;0.45;0.45;;;;;;;3.26;91.16;96711.34;5134059;27;20047;-61
2022/12/01 09:47:57;;;;;;;0.60;0.60;;;;;;;3.25;91.80;96716.53;5134074;27;20047;-61
2022/12/01 09:50:27;;;;;;;0.60;0.60;;;;;;;3.22;91.59;96704.44;5134107;27;20043;-60
2022/12/01 09:52:58;;;;;;;0.50;0.50;;;;;;;3.25;91.85;96707.00;5134054;27;20055;-61
2022/12/01 09:55:26;;;;;;;1.45;0.50;;;;;;;3.24;92.61;96702.72;5134150;27;20072;-60
2022/12/01 09:57:59;;;;;;;0.57;0.57;;;;;;;3.24;92.79;96707.91;5134406;27;20103;-61
2022/12/01 10:00:32;;;;;;;0.60;0.60;;;;;;;3.20;92.33;96697.56;5133831;27;20112;-60
2022/12/01 10:03:07;;;;;;;0.50;0.50;;;;;;;3.23;93.28;96693.25;5133906;27;20043;-60
2022/12/01 10:05:41;;;;;;;3.05;0.65;;;;;;;3.24;93.17;96704.44;5133793;27;20047;-60
2022/12/01 10:08:14;;;;;;;0.43;0.43;;;;;;;3.25;92.42;96695.84;5133828;27;20058;-61
2022/12/01 10:10:46;;;;;;;0.50;0.50;;;;;;;3.27;92.74;96699.25;5133909;27;20100;-61
2022/12/01 10:13:17;;;;;;;0.50;0.50;;;;;;;3.25;92.60;96686.34;5133893;27;20122;-61
2022/12/01 10:15:55;;;;;;;2.25;0.50;;;;;;;3.27;92.24;96696.66;5136814;27;20536;-60
2022/12/01 10:18:37;;;;;;;0.57;0.57;;;;;;;3.24;91.49;96694.97;5137641;27;20059;-60
2022/12/01 10:21:11;;;;;;;0.50;0.50;;;;;;;3.24;91.77;96702.72;5137681;27;20051;-60
2022/12/01 10:23:51;;;;;;;0.50;0.50;;;;;;;3.26;91.39;96700.13;5137793;27;20074;-60
2022/12/01 10:26:25;;;;;;;0.50;0.50;;;;;;;3.25;91.48;96694.09;5137782;27;20068;-59
2022/12/01 10:29:10;;;;;;;0.68;0.50;;;;;;;3.26;92.57;96693.25;5137700;27;20047;-62
2022/12/01 10:31:50;;;;;;;0.60;0.60;;;;;;;3.27;92.66;96689.78;5137754;27;20054;-60
2022/12/01 10:34:23;;;;;;;0.50;0.50;;;;;;;3.27;91.28;96686.31;5137669;27;20085;-60
2022/12/01 10:36:50;;;;;;;0.75;0.60;;;;;;;3.29;91.53;96689.78;5137544;27;20084;-61
2022/12/01 10:39:22;;;;;;;0.50;0.50;;;;;;;3.29;91.40;96682.84;5137493;27;20484;-60
2022/12/01 10:41:50;;;;;;;0.57;0.45;;;;;;;3.29;91.52;96688.03;5137434;27;20138;-60
2022/12/01 10:44:19;;;;;;;0.43;0.43;;;;;;;3.22;90.70;96681.19;5137332;27;20043;-59
2022/12/01 10:46:51;;;;;;;0.50;0.50;;;;;;;3.24;91.19;96674.28;5137368;27;20442;-59
2022/12/01 10:49:19;;;;;;;0.50;0.50;;;;;;;3.25;91.75;96685.50;5137260;27;20092;-61
2022/12/01 10:51:50;;;;;;;1.00;0.55;;;;;;;3.20;91.24;96676.91;5137214;27;20043;-61
2022/12/01 10:54:17;;;;;;;2.25;0.50;;;;;;;3.21;90.56;96683.78;5137243;27;20054;-60
2022/12/01 10:56:47;;;;;;;1.05;0.60;;;;;;;3.22;91.53;96678.59;5137294;27;20083;-60
2022/12/01 10:59:26;;;;;;;0.60;0.60;;;;;;;3.22;91.45;96682.94;5137256;27;20179;-60
2022/12/01 11:01:57;;;;;;;0.50;0.50;;;;;;;3.20;91.39;96679.47;5137030;27;20559;-62
2022/12/01 11:04:33;;;;;;;0.60;0.60;;;;;;;3.23;91.88;96680.34;5137096;27;20107;-62
2022/12/01 11:07:01;;;;;;;0.50;0.50;;;;;;;3.16;91.74;96679.50;5137056;27;20047;-61
2022/12/01 11:09:30;;;;;;;0.40;0.40;;;;;;;3.15;91.23;96674.34;5137036;27;20496;-62
2022/12/01 11:11:59;;;;;;;1.58;0.47;;;;;;;3.18;90.86;96676.03;5136958;27;20047;-62
2022/12/01 11:14:34;;;;;;;0.50;0.50;;;;;;;3.21;91.66;96673.44;5136831;27;20134;-62
2022/12/01 11:17:16;;;;;;;0.40;0.40;;;;;;;3.16;91.79;96663.13;5137079;27;20495;-62
2022/12/01 11:19:44;;;;;;;0.68;0.57;;;;;;;3.15;91.29;96674.34;5136608;27;20096;-61
2022/12/01 11:22:22;;;;;;;0.50;0.50;;;;;;;3.14;92.11;96676.06;5136665;27;20145;-62
2022/12/01 11:25:01;;;;;;;1.67;0.50;;;;;;;3.20;91.69;96674.31;5136618;27;20092;-62
2022/12/01 11:27:32;;;;;;;0.45;0.43;;;;;;;3.17;91.86;96677.78;5135403;27;20078;-61
2022/12/01 11:30:03;;;;;;;0.50;0.50;;;;;;;3.19;91.92;96681.19;5136534;27;20043;-62
2022/12/01 11:32:35;;;;;;;0.60;0.60;;;;;;;3.19;90.71;96680.34;5136564;27;20074;-62
2022/12/01 11:35:06;;;;;;;0.50;0.50;;;;;;;3.17;91.57;96675.19;5136456;27;20130;-62
2022/12/01 11:37:37;;;;;;;0.40;0.40;;;;;;;3.20;91.50;96679.47;5136430;27;20069;-63
2022/12/01 11:40:08;;;;;;;0.47;0.47;;;;;;;3.18;90.62;96678.63;5136272;27;20126;-60
2022/12/01 11:42:36;;;;;;;0.50;0.50;;;;;;;3.22;90.85;96680.34;5136496;27;20484;-62
2022/12/01 11:45:09;;;;;;;0.60;0.60;;;;;;;3.22;90.96;96676.00;5136279;27;20481;-61
2022/12/01 11:48:02;;;;;;;0.50;0.50;;;;;;;3.22;91.23;96667.41;5136262;27;20047;-62
2022/12/01 11:50:31;;;;;;;0.50;0.50;;;;;;;3.18;90.71;96669.16;5136162;27;20051;-62
2022/12/01 11:52:59;;;;;;;0.40;0.40;;;;;;;3.17;91.01;96670.03;5136065;27;20047;-62
2022/12/01 11:55:28;;;;;;;0.60;0.60;;;;;;;3.11;91.56;96657.13;5136069;27;20051;-62
2022/12/01 11:57:58;;;;;;;0.60;0.60;;;;;;;3.18;91.73;96661.38;5136070;27;20488;-60
2022/12/01 12:00:28;;;;;;;0.50;0.50;;;;;;;3.20;91.70;96661.38;5135978;27;20411;-60